Hope, Alaska
Current Conditions -  °F | °C
As of 7:53 PM on Thursday 30 Oct 2014 (Local Time) from PANC Reporting Station
Few Clouds Few Clouds  
Wind Chill: 21°   Ceiling: Unl
Heat Index: 21°   Visibility: 10mi
Dew Point: 15°   Wind: 0mph
Humidity: 78%   Direction: NA
Pressure: 29.39"   Gusts: NA
Location:  60.91°N, 149.63°W
Report Text: PANC 310353Z 00000KT 10SM FEW200 M06/M09 A2939 RMK AO2 SLP955 T10611094
Loading
Personal Weather Stations






























Interactive Weather Map
Tropical Storm Tracking
New forecast layout! Learn more

10-Day Weather Forecast

Advertisements
Track Severe Weather on mobile